Home > Products > Valid Products > TAF

000
FTUS43 KIND 190800 AAA
TAFLAF
TAF AMD
KLAF 190816Z 1908/2006 09012KT P6SM BKN200
     FM191700 09013KT 5SM SHRA BR OVC012
     FM192100 06014KT 3SM SHRA BR OVC006
     FM200200 27012KT P6SM OVC006
      AMD LTD TO CLD VIS AND WIND TIL 191300=



000
FTUS43 KIND 190800 AAA
TAFIND
TAF AMD
KIND 190813Z 1908/2012 07012KT P6SM SCT150 OVC200
     FM191500 09012KT 5SM SHRA BR OVC012
     FM191800 12013KT 3SM SHRA BR OVC006
     FM200100 21012KT 5SM SHRA BR OVC009
     FM200500 24011KT P6SM OVC006=



000
FTUS43 KIND 190500
TAFIND
TAF
KIND 190524Z 1906/2012 06010KT P6SM SCT150 OVC200
     FM191500 09012KT 5SM SHRA BR OVC012
     FM191800 12013KT 3SM SHRA BR OVC006
     FM200100 21012KT 5SM SHRA BR OVC009
     FM200500 24011KT P6SM OVC006=



000
FTUS43 KIND 190500
TAFLAF
TAF
KLAF 190524Z 1906/2006 06011KT P6SM BKN200
     FM191700 09013KT 5SM SHRA BR OVC012
     FM192100 06014KT 3SM SHRA BR OVC006
     FM200200 27012KT P6SM OVC006
      AMD LTD TO CLD VIS AND WIND TIL 191300=



000
FTUS43 KIND 190500
TAFIND
TAF
KIND 190524Z 1906/2012 06010KT P6SM SCT150 OVC200
     FM191500 09012KT 5SM SHRA BR OVC012
     FM191800 12013KT 3SM SHRA BR OVC006
     FM200100 21012KT 5SM SHRA BR OVC009
     FM200500 24011KT P6SM OVC006=



000
FTUS43 KIND 190500
TAFLAF
TAF
KLAF 190524Z 1906/2006 06011KT P6SM BKN200
     FM191700 09013KT 5SM SHRA BR OVC012
     FM192100 06014KT 3SM SHRA BR OVC006
     FM200200 27012KT P6SM OVC006
      AMD LTD TO CLD VIS AND WIND TIL 191300=



000
FTUS43 KIND 190200 AAA
TAFLAF
TAF AMD
KLAF 190231Z 1903/1924 09005KT P6SM BKN200
     FM190600 07010KT P6SM OVC200
     FM191700 09013KT 5SM SHRA BR OVC012
     FM192100 06014KT 3SM SHRA BR OVC006
      AMD LTD TO CLD VIS AND WIND TIL 191300=



000
FTUS43 KIND 190200 AAA
TAFLAF
TAF AMD
KLAF 190231Z 1903/1924 09005KT P6SM BKN200
     FM190600 07010KT P6SM OVC200
     FM191700 09013KT 5SM SHRA BR OVC012
     FM192100 06014KT 3SM SHRA BR OVC006
      AMD LTD TO CLD VIS AND WIND TIL 191300=



000
FTUS43 KIND 190200 AAA
TAFIND
TAF AMD
KIND 190224Z 1902/2006 09007KT P6SM FEW150 BKN250
     FM190500 07012KT P6SM OVC200
     FM191500 09013KT 5SM SHRA BR OVC012
     FM191800 12014KT 3SM SHRA BR OVC006
     FM192300 21015KT 5SM SHRA BR OVC009
     FM200300 24011KT P6SM BKN015=



000
FTUS43 KIND 182300
TAFIND
TAF
KIND 182327Z 1900/2006 10010KT P6SM FEW150 OVC200
     FM190300 07012KT P6SM OVC200
     FM191300 09013KT 5SM SHRA BR OVC012
     FM191600 12014KT 3SM SHRA BR OVC006
     FM192300 21015KT 5SM SHRA BR OVC009
     FM200300 24011KT P6SM BKN015=



000
FTUS43 KIND 182300
TAFLAF
TAF
KLAF 182327Z 1900/1924 11007KT P6SM BKN200
     FM190300 07012KT P6SM OVC200
     FM191400 09013KT 5SM SHRA BR OVC012
     FM191800 06014KT 3SM SHRA BR OVC006
      AMD LTD TO CLD VIS AND WIND 1901/1913=



000
FTUS43 KIND 182000 AAA
TAFIND
TAF AMD
KIND 182017Z 1820/1924 12007KT P6SM SCT060 BKN200
     FM190100 07012KT P6SM OVC200
     FM191200 09013KT 5SM SHRA BR OVC012
     FM191500 12014KT 3SM SHRA BR OVC006
     FM192100 21015KT 3SM SHRA BR OVC009=



000
FTUS43 KIND 181700
TAFLAF
TAF
KLAF 181720Z 1818/1918 10007KT P6SM SCT060 BKN200
     FM190100 07012KT P6SM OVC200
     FM191400 09013KT 5SM SHRA BR OVC012
     FM191700 12014KT 3SM SHRA BR OVC006=



000
FTUS43 KIND 181700
TAFIND
TAF
KIND 181720Z 1818/1924 10007KT P6SM SCT060 BKN200
     FM190100 07012KT P6SM OVC200
     FM191200 09013KT 5SM SHRA BR OVC012
     FM191500 12014KT 3SM SHRA BR OVC006
     FM192100 21015KT 3SM SHRA BR OVC009=



000
FTUS43 KIND 181400 AAA
TAFIND
TAF AMD
KIND 181421Z 1814/1918 12003KT P6SM BKN200
     FM181800 10007KT P6SM SCT060 BKN200
     FM190100 07012KT P6SM OVC200
     FM191200 09013KT 6SM BR VCTS OVC015CB
     FM191500 10014KT 4SM BR VCTS OVC009CB=



000
FTUS43 KIND 181100
TAFIND
TAF
KIND 181129Z 1812/1918 00000KT P6SM FEW200
     FM190300 07012KT P6SM SCT050 OVC250
     FM191200 09013KT 6SM BR VCTS OVC015CB
     FM191500 10014KT 4SM BR VCTS OVC009CB=



000
FTUS43 KIND 181100
TAFLAF
TAF
KLAF 181129Z 1812/1912 05003KT P6SM SKC
     FM181700 11007KT P6SM SCT050 BKN250
     FM190300 08014KT P6SM SCT050 OVC250
      AMD LTD TO CLD VIS AND WIND TIL 181300=



000
FTUS43 KIND 180800 AAA
TAFLAF
TAF AMD
KLAF 180836Z 1809/1906 00000KT P6SM SKC
     FM181700 11007KT P6SM SCT050 BKN250
     FM190100 09008KT P6SM SCT100 OVC250
      AMD LTD TO CLD VIS AND WIND TIL 181300=



000
FTUS43 KIND 180800 AAA
TAFIND
TAF AMD
KIND 180828Z 1808/1912 00000KT P6SM SKC
     FM181700 10007KT P6SM SCT050 BKN250
     FM190100 09008KT P6SM SCT100 OVC250=



000
FTUS43 KIND 180500
TAFIND
TAF
KIND 180520Z 1806/1912 VRB04KT P6SM SKC
      TEMPO 1809/1812 5SM BR
     FM181700 10007KT P6SM SCT050 BKN250
     FM190100 09008KT P6SM SCT100 OVC250=



000
FTUS43 KIND 180500
TAFLAF
TAF
KLAF 180520Z 1806/1906 00000KT P6SM SKC
      TEMPO 1808/1812 4SM BR
     FM181700 11007KT P6SM SCT050 BKN250
     FM190100 09008KT P6SM SCT100 OVC250
      AMD LTD TO CLD VIS AND WIND TIL 181300=



000
FTUS43 KIND 180200 AAA
TAFIND
TAF AMD
KIND 180219Z 1802/1906 VRB04KT P6SM SCT250
      TEMPO 1809/1812 5SM BR
     FM181700 09007KT P6SM SCT050 BKN250=



000
FTUS43 KIND 180200 AAA
TAFIND
TAF AMD
KIND 180219Z 1802/1906 VRB04KT P6SM SCT250
      TEMPO 1809/1812 5SM BR
     FM181700 09007KT P6SM SCT050 BKN250=



000
FTUS43 KIND 172300
TAFIND
TAF
KIND 172324Z 1800/1906 VRB04KT P6SM SCT250
      TEMPO 1809/1812 5SM BR
     FM181700 09007KT P6SM SCT050 BKN250=



000
FTUS43 KIND 172300
TAFIND
TAF
KIND 172324Z 1800/1906 VRB04KT P6SM SCT250
      TEMPO 1809/1812 5SM BR
     FM181700 09007KT P6SM SCT050 BKN250=



000
FTUS43 KIND 172300
TAFLAF
TAF
KLAF 172324Z 1800/1824 00000KT P6SM SCT250
      TEMPO 1808/1812 4SM BR
     FM181700 09007KT P6SM SCT050 BKN250
      AMD LTD TO CLD VIS AND WIND 1801/1813=



000
FTUS43 KIND 172300
TAFLAF
TAF
KLAF 172324Z 1800/1824 00000KT P6SM SCT250
      TEMPO 1808/1812 4SM BR
     FM181700 09007KT P6SM SCT050 BKN250
      AMD LTD TO CLD VIS AND WIND 1801/1813=



000
FTUS43 KIND 172000 AAA
TAFIND
TAF AMD
KIND 172016Z 1720/1824 VRB04KT P6SM BKN250
     FM181700 09009KT P6SM SCT050 BKN200=



000
FTUS43 KIND 171700
TAFLAF
TAF
KLAF 171727Z 1718/1818 VRB04KT P6SM SKC
     FM180900 00000KT 3SM BR SCT100
     FM181300 09004KT P6SM SCT050 BKN200=



000
FTUS43 KIND 171700
TAFIND
TAF
KIND 171727Z 1718/1824 VRB04KT P6SM SCT250
     FM181700 09009KT P6SM SCT050 BKN200=



000
FTUS43 KIND 171700
TAFLAF
TAF
KLAF 171727Z 1718/1818 VRB04KT P6SM SKC
     FM180900 00000KT 3SM BR SCT100
     FM181300 09004KT P6SM SCT050 BKN200=



000
FTUS43 KIND 171700
TAFIND
TAF
KIND 171727Z 1718/1824 VRB04KT P6SM SCT250
     FM181700 09009KT P6SM SCT050 BKN200=



000
FTUS43 KIND 171400 AAB
TAFIND
TAF AMD
KIND 171421Z 1714/1818 VRB03KT 4SM BR BKN250
     FM171500 VRB04KT P6SM FEW080=



000
FTUS43 KIND 171400 AAB
TAFIND
TAF AMD
KIND 171421Z 1714/1818 VRB03KT 4SM BR BKN250
     FM171500 VRB04KT P6SM FEW080=



000
FTUS43 KIND 171400 AAA
TAFLAF
TAF AMD
KLAF 171406Z 1714/1812 VRB03KT 1/4SM FG VV002
     FM171430 VRB03KT 2SM BR SCT002 BKN006
     FM171500 VRB04KT 5SM BR SCT006
     FM171530 VRB04KT P6SM FEW080
     FM180900 21001KT 4SM BR SCT060=



000
FTUS43 KIND 171200 AAA
TAFIND
TAF AMD
KIND 171231Z 1713/1818 VRB03KT 1/2SM FG FEW002 SCT006
     FM171300 VRB03KT 3SM BR FEW006
     FM171330 VRB03KT P6SM FEW080=



000
FTUS43 KIND 171200 AAA
TAFIND
TAF AMD
KIND 171231Z 1713/1818 VRB03KT 1/2SM FG FEW002 SCT006
     FM171300 VRB03KT 3SM BR FEW006
     FM171330 VRB03KT P6SM FEW080=



000
FTUS43 KIND 171100
TAFIND
TAF
KIND 171122Z 1712/1818 34005KT 1/4SM FG VV004
     FM171400 VRB03KT P6SM FEW080=



000
FTUS43 KIND 171100
TAFLAF
TAF
KLAF 171122Z 1712/1812 00000KT 1/4SM FG VV002
     FM171400 VRB04KT P6SM FEW080
     FM180900 21001KT 4SM BR SCT060
      AMD LTD TO CLD VIS AND WIND TIL 171300=



000
FTUS43 KIND 171000 AAA
TAFLAF
TAF AMD
KLAF 171000Z 1710/1806 00000KT 1/4SM FG VV002
     FM171400 VRB04KT P6SM SCT250
      AMD LTD TO CLD VIS AND WIND TIL 171300=



000
FTUS43 KIND 170800 AAB
TAFIND
TAF AMD
KIND 170826Z 1708/1812 31003KT 1/4SM FG VV005
      TEMPO 1708/1710 VV001
     FM171200 34005KT 2SM BR SCT250
     FM171500 VRB03KT P6SM FEW025=



000
FTUS43 KIND 170600 AAA
TAFIND
TAF AMD
KIND 170623Z 1706/1812 31003KT 1/4SM FG VV005
      TEMPO 1706/1710 VV001
     FM171200 34005KT 2SM BR SCT250
     FM171500 VRB03KT P6SM FEW025=



000
FTUS43 KIND 170500
TAFIND
TAF
KIND 170520Z 1706/1812 36003KT P6SM FEW025
     FM170800 VRB03KT 5SM BR SKC
      TEMPO 1709/1712 3SM BR BCFG
     FM171300 34005KT P6SM SCT250=



000
FTUS43 KIND 170500
TAFLAF
TAF
KLAF 170520Z 1706/1806 00000KT 3/4SM BR VV005
      TEMPO 1706/1710 1/4SM FG VV002
     FM171400 VRB04KT P6SM SCT250
      AMD LTD TO CLD VIS AND WIND TIL 171300=



000
FTUS43 KIND 170500
TAFLAF
TAF
KLAF 170520Z 1706/1806 00000KT 3/4SM BR VV005
      TEMPO 1706/1710 1/4SM FG VV002
     FM171400 VRB04KT P6SM SCT250
      AMD LTD TO CLD VIS AND WIND TIL 171300=



000
FTUS43 KIND 170500
TAFIND
TAF
KIND 170520Z 1706/1812 36003KT P6SM FEW025
     FM170800 VRB03KT 5SM BR SKC
      TEMPO 1709/1712 3SM BR BCFG
     FM171300 34005KT P6SM SCT250=



000
FTUS43 KIND 170400 AAC
TAFLAF
TAF AMD
KLAF 170402Z 1704/1724 00000KT 1/2SM FG VV002
      TEMPO 1709/1713 2SM BR
     FM171400 VRB04KT P6SM SCT250
      AMD LTD TO CLD VIS AND WIND TIL 171300=



000
FTUS43 KIND 170400 AAC
TAFLAF
TAF AMD
KLAF 170402Z 1704/1724 00000KT 1/2SM FG VV002
      TEMPO 1709/1713 2SM BR
     FM171400 VRB04KT P6SM SCT250
      AMD LTD TO CLD VIS AND WIND TIL 171300=



000
FTUS43 KIND 170200 AAB
TAFLAF
TAF AMD
KLAF 170248Z 1703/1724 VRB02KT 2SM BR FEW025
     FM170800 00000KT 1/2SM FG SKC
      TEMPO 1709/1713 2SM BR
     FM171400 VRB04KT P6SM SCT250
      AMD LTD TO CLD VIS AND WIND TIL 171300=



000
FTUS43 KIND 170200 AAA
TAFIND
TAF AMD
KIND 170226Z 1702/1806 VRB04KT P6SM BKN025
     FM170300 VRB03KT 5SM BR SCT025 BKN060
     FM170600 VRB03KT 3SM BR SCT080
      TEMPO 1709/1712 1SM BR BCFG
     FM171300 34005KT P6SM SCT250=



000
FTUS43 KIND 170100 AAA
TAFLAF
TAF AMD
KLAF 170118Z 1701/1724 VRB02KT P6SM FEW025
     FM170800 00000KT 3SM BR SKC
      TEMPO 1709/1713 2SM BR BCFG
     FM171400 VRB04KT P6SM SCT250
      AMD LTD TO CLD VIS AND WIND TIL 171300=



000
FTUS43 KIND 162300
TAFIND
TAF
KIND 162320Z 1700/1806 VRB04KT P6SM BKN025
     FM170200 VRB03KT P6SM SCT025 BKN060
     FM170800 VRB03KT 5SM BR SCT080
      TEMPO 1709/1712 3SM BR BCFG
     FM171300 34005KT P6SM SCT250=



000
FTUS43 KIND 162300
TAFLAF
TAF
KLAF 162320Z 1700/1724 VRB05KT P6SM OVC018
     FM170200 VRB02KT P6SM SCT025 BKN060
     FM170800 00000KT 3SM BR SCT080
      TEMPO 1709/1713 2SM BR BCFG
     FM171400 VRB04KT P6SM SCT250
      AMD LTD TO CLD VIS AND WIND 1701/1713=



000
FTUS43 KIND 162000 AAA
TAFLAF
TAF AMD
KLAF 162027Z 1620/1718 27004KT P6SM OVC015
     FM162200 30005KT P6SM BKN035
     FM170200 34003KT P6SM SCT035 SCT100
      TEMPO 1707/1711 4SM BR
     FM171400 36003KT P6SM SCT250=



000
FTUS43 KIND 162000 AAA
TAFLAF
TAF AMD
KLAF 162027Z 1620/1718 27004KT P6SM OVC015
     FM162200 30005KT P6SM BKN035
     FM170200 34003KT P6SM SCT035 SCT100
      TEMPO 1707/1711 4SM BR
     FM171400 36003KT P6SM SCT250=



000
FTUS43 KIND 162000 AAA
TAFIND
TAF AMD
KIND 162026Z 1620/1724 23005KT P6SM OVC018
     FM162200 21008KT P6SM BKN035
     FM170200 32006KT P6SM SCT035 SCT100
     FM171400 02004KT P6SM SCT250
     FM172000 34005KT P6SM SCT250=



000
FTUS43 KIND 161700
TAFLAF
TAF
KLAF 161725Z 1618/1718 27004KT P6SM OVC009
     FM162100 30005KT P6SM BKN035
     FM170200 34003KT P6SM SCT035 SCT100
      TEMPO 1707/1711 4SM BR
     FM171400 36003KT P6SM SCT250=



000
FTUS43 KIND 161700
TAFIND
TAF
KIND 161725Z 1618/1724 23005KT P6SM OVC010
     FM162200 21008KT P6SM BKN035
     FM170200 32006KT P6SM SCT035 SCT100
     FM171400 02004KT P6SM SCT250
     FM172000 34005KT P6SM SCT250=



000
FTUS43 KIND 161500 AAA
TAFLAF
TAF AMD
KLAF 161538Z 1616/1712 10008KT P6SM OVC008
     FM161900 21005KT P6SM OVC015
     FM162200 24006KT P6SM BKN030
     FM170200 33003KT 6SM BR BKN050=



000
FTUS43 KIND 161400 AAA
TAFIND
TAF AMD
KIND 161420Z 1614/1718 15008KT P6SM OVC011
     FM161800 17009KT P6SM SCT008 OVC015
     FM162200 21008KT P6SM BKN030
     FM170200 27006KT 6SM BR BKN050=



000
FTUS43 KIND 161100
TAFIND
TAF
KIND 161120Z 1612/1718 11008KT P6SM VCSH SCT008 OVC015
      TEMPO 1612/1616 OVC008
     FM161600 15009KT P6SM VCSH SCT008 OVC015
     FM162000 21008KT P6SM BKN030
     FM170200 27006KT 6SM BR BKN050=



000
FTUS43 KIND 161100
TAFIND
TAF
KIND 161120Z 1612/1718 11008KT P6SM VCSH SCT008 OVC015
      TEMPO 1612/1616 OVC008
     FM161600 15009KT P6SM VCSH SCT008 OVC015
     FM162000 21008KT P6SM BKN030
     FM170200 27006KT 6SM BR BKN050=



000
FTUS43 KIND 161100
TAFLAF
TAF
KLAF 161120Z 1612/1712 10008KT P6SM VCSH SCT008 OVC015
      TEMPO 1612/1615 OVC008
     FM161500 15005KT P6SM VCSH OVC015
     FM162000 24006KT P6SM BKN030
     FM170200 33003KT 6SM BR BKN050
      AMD LTD TO CLD VIS AND WIND TIL 161300=



000
FTUS43 KIND 161100
TAFLAF
TAF
KLAF 161120Z 1612/1712 10008KT P6SM VCSH SCT008 OVC015
      TEMPO 1612/1615 OVC008
     FM161500 15005KT P6SM VCSH OVC015
     FM162000 24006KT P6SM BKN030
     FM170200 33003KT 6SM BR BKN050
      AMD LTD TO CLD VIS AND WIND TIL 161300=



    US Dept of Commerce
    National Oceanic and Atmospheric Administration
    National Weather Service
    1325 East West Highway
    Silver Spring, MD 20910
    Page Author: NWS Internet Services Team
Disclaimer
Information Quality
Credits
Glossary
Privacy Policy
Freedom of Information Act (FOIA)
About Us
Career Opportunities